New Century 1 — H9LA — position and weather

sailwx.info

Track history (hours):
 
Tides and Currents Weather Stations Pressure Air Temp Water Temp Dewpoint Dewpoint Depression Visibility Wind Speed Wind Dir Waves Ship Positions

New Century 1

Last reported at 2017-Jul-22 02:33 UTC. Time now 2017-Jul-22 10:37 UTC.
Position N 38°03' W 122°18'.

Length 200 m; beam 32.3 m.

Type: Cargo ship. MMSI: 355234000.

Date/timePositionNaut miles runAvg speedWind from/ knotsBaromVisibWave heightAir tempDewpointWater temp
2017-Jul-22 02:33N 38°03' W 122°18'114.4
2017-Jul-22 02:31N 38°03' W 122°19'714.4
2017-Jul-22 02:01N 37°59' W 122°26'714.1
2017-Jul-22 01:31N 37°52' W 122°25'714.0
2017-Jul-22 01:01N 37°48' W 122°32'713.1
2017-Jul-22 00:30N 37°45' W 122°40'612.0
2017-Jul-22 00:00N 37°39' W 122°40'917.1
2017-Jul-21 23:30N 37°30' W 122°40'714.1
2017-Jul-21 23:00N 37°23' W 122°39'5 9.2
2017-Jul-21 22:30N 37°19' W 122°39'917.6
2017-Jul-21 22:00N 37°10' W 122°39'917.5
2017-Jul-21 21:30N 37°01' W 122°37'918.1
2017-Jul-21 21:00N 36°52' W 122°36'917.9
2017-Jul-21 20:30N 36°43' W 122°36'917.4
2017-Jul-21 20:00N 36°35' W 122°34'917.5
2017-Jul-21 19:30N 36°26' W 122°32'917.3
2017-Jul-21 19:01N 36°18' W 122°29'917.5
2017-Jul-21 18:30N 36°09' W 122°27'917.3
2017-Jul-21 18:00N 36°01' W 122°24'917.3
2017-Jul-21 17:30N 35°53' W 122°21'816.8
2017-Jul-21 17:00N 35°44' W 122°18'816.9
2017-Jul-21 16:30N 35°37' W 122°13'816.9
2017-Jul-21 16:00N 35°31' W 122°06'816.0
2017-Jul-21 15:30N 35°24' W 122°00'816.1
2017-Jul-21 15:00N 35°18' W 121°54'816.4
2017-Jul-21 14:30N 35°12' W 121°47'816.4
2017-Jul-21 14:00N 35°05' W 121°41'816.8
2017-Jul-21 13:30N 34°59' W 121°35'917.8
2017-Jul-21 13:00N 34°52' W 121°28'917.6
2017-Jul-21 12:30N 34°45' W 121°21'917.5
2017-Jul-21 12:00N 34°39' W 121°13'917.6
2017-Jul-21 11:30N 34°34' W 121°05'917.4
2017-Jul-21 11:00N 34°29' W 120°56'917.3
2017-Jul-21 10:30N 34°25' W 120°47'917.2
2017-Jul-21 10:00N 34°23' W 120°36'917.8
2017-Jul-21 09:30N 34°21' W 120°26'1018.9
2017-Jul-21 09:00N 34°18' W 120°15'919.2
2017-Jul-21 08:30N 34°16' W 120°04'1019.3
2017-Jul-21 08:00N 34°13' W 119°53'918.2
2017-Jul-21 07:30N 34°11' W 119°42'918.2
2017-Jul-21 07:00N 34°08' W 119°32'918.2
2017-Jul-21 06:30N 34°06' W 119°21'918.2
2017-Jul-21 06:00N 34°02' W 119°11'815.2
2017-Jul-21 05:30N 33°59' W 119°03'510.7
2017-Jul-21 05:01N 33°56' W 118°57'611.0
2017-Jul-21 04:31N 33°53' W 118°52'611.1
2017-Jul-21 04:00N 33°50' W 118°46'510.9
2017-Jul-21 03:31N 33°48' W 118°40'510.9
2017-Jul-21 03:00N 33°45' W 118°34'611.1
2017-Jul-21 02:30N 33°42' W 118°29'511.0
2017-Jul-21 02:00N 33°39' W 118°23'510.3
2017-Jul-21 01:30N 33°39' W 118°17'5 9.9
2017-Jul-21 01:00N 33°41' W 118°11'4 8.1
2017-Jul-21 00:31N 33°44' W 118°13'2 4.0
2017-Jul-21 00:00N 33°46' W 118°13'0 0.0
2017-Jul-20 23:29N 33°46' W 118°13'0 0.0
2017-Jul-20 22:59N 33°46' W 118°13'0 0.0
2017-Jul-20 22:29N 33°46' W 118°13'0 0.0
2017-Jul-20 21:59N 33°46' W 118°13'0 0.0
2017-Jul-20 21:29N 33°46' W 118°13'0 0.0
2017-Jul-20 20:59N 33°46' W 118°13'0 0.0
2017-Jul-20 20:29N 33°46' W 118°13'0 0.0
2017-Jul-20 19:59N 33°46' W 118°13'0 0.0
2017-Jul-20 19:29N 33°46' W 118°13'0 0.0
2017-Jul-20 18:59N 33°46' W 118°13'0 0.0
2017-Jul-20 18:27N 33°46' W 118°13'0 0.0
2017-Jul-20 18:01N 33°46' W 118°13'0 0.0
2017-Jul-20 17:30N 33°46' W 118°13'0 0.0
2017-Jul-20 17:00N 33°46' W 118°13'0 0.0
2017-Jul-20 16:30N 33°46' W 118°13'0 0.0
2017-Jul-20 16:01N 33°46' W 118°13'0 0.0
2017-Jul-20 15:31N 33°46' W 118°13'0 0.0
2017-Jul-20 15:01N 33°46' W 118°13'0 0.0
2017-Jul-20 14:00N 33°46' W 118°13'0 0.0
2017-Jul-20 13:30N 33°46' W 118°13'0 0.0
2017-Jul-20 13:01N 33°46' W 118°13'0 0.0
2017-Jul-20 12:30N 33°46' W 118°13'0 0.0
2017-Jul-20 12:00N 33°46' W 118°13'0 0.0
2017-Jul-20 11:31N 33°46' W 118°13'0 0.0
2017-Jul-20 11:01N 33°46' W 118°13'0 0.0
2017-Jul-20 10:31N 33°46' W 118°13'0 0.0
2017-Jul-20 10:00N 33°46' W 118°13'0 0.0
2017-Jul-20 09:31N 33°46' W 118°13'0 0.0
2017-Jul-20 09:00N 33°46' W 118°13'0 0.0
2017-Jul-20 08:30N 33°46' W 118°13'0 0.0
2017-Jul-20 08:01N 33°46' W 118°13'0 0.0
2017-Jul-20 07:30N 33°46' W 118°13'0 0.0
2017-Jul-20 07:00N 33°46' W 118°13'0 0.0
2017-Jul-20 06:30N 33°46' W 118°13'0 0.0
2017-Jul-20 06:00N 33°46' W 118°13'0 0.0
2017-Jul-20 05:30N 33°46' W 118°13'0 0.0
2017-Jul-20 05:00N 33°46' W 118°13'0 0.0
2017-Jul-20 04:30N 33°46' W 118°13'0 0.0
2017-Jul-20 04:01N 33°46' W 118°13'0 0.0
2017-Jul-20 03:30N 33°46' W 118°13'0 0.0
2017-Jul-20 03:00N 33°46' W 118°13'0 0.0
2017-Jul-20 02:30N 33°46' W 118°13'0 0.0
2017-Jul-20 02:00N 33°46' W 118°13'0 0.0
2017-Jul-20 01:30N 33°46' W 118°13'0 0.0
2017-Jul-20 01:00N 33°46' W 118°13'0 0.3
2017-Jul-20 00:30N 33°46' W 118°13'1 2.2
2017-Jul-20 00:00N 33°45' W 118°13'4 7.4
2017-Jul-19 23:31N 33°42' W 118°11'4 7.6
2017-Jul-19 23:00N 33°38' W 118°12'4 8.7
2017-Jul-19 22:30N 33°36' W 118°16'5 9.0
2017-Jul-19 22:00N 33°36' W 118°21'5 9.4
2017-Jul-19 21:30N 33°37' W 118°27'5 9.4
2017-Jul-19 21:00N 33°37' W 118°33'5 9.6
2017-Jul-19 20:30N 33°37' W 118°38'5 9.0
2017-Jul-19 20:00N 33°38' W 118°44'5 9.2
2017-Jul-19 19:30N 33°39' W 118°49'5 9.4
2017-Jul-19 19:00N 33°39' W 118°55'4 8.8
2017-Jul-19 18:30N 33°39' W 119°00'4 8.7
2017-Jul-19 18:01N 33°40' W 119°05'5 9.8
2017-Jul-19 17:30N 33°40' W 119°11'5 9.6
2017-Jul-19 17:01N 33°40' W 119°17'510.1
2017-Jul-19 16:31N 33°40' W 119°23'5 9.9
2017-Jul-19 16:01N 33°40' W 119°29'5 9.4
2017-Jul-19 15:30N 33°39' W 119°35'5 9.4
2017-Jul-19 15:00N 33°39' W 119°40'3 7.0
2017-Jul-19 14:30N 33°39' W 119°44'714.8
2017-Jul-19 14:00N 33°39' W 119°53'714.9
2017-Jul-19 13:30N 33°39' W 120°02'815.0
2017-Jul-19 13:00N 33°38' W 120°11'815.2
2017-Jul-19 12:30N 33°38' W 120°20'815.1
2017-Jul-19 12:00N 33°38' W 120°29'815.4
2017-Jul-19 11:30N 33°38' W 120°39'815.6
2017-Jul-19 11:00N 33°38' W 120°48'815.5
2017-Jul-19 10:30N 33°37' W 120°57'815.7
2017-Jul-19 10:00N 33°37' W 121°07'815.9
2017-Jul-19 09:30N 33°37' W 121°16'815.9
2017-Jul-19 09:00N 33°37' W 121°26'815.8
2017-Jul-19 08:30N 33°36' W 121°35'816.0
2017-Jul-19 08:00N 33°36' W 121°45'816.1
2017-Jul-19 07:30N 33°36' W 121°55'816.2
2017-Jul-19 07:00N 33°36' W 122°04'816.4
2017-Jul-19 06:30N 33°36' W 122°14'816.3
2017-Jul-19 06:00N 33°35' W 122°24'5336.3
2017-Jul-19 06:00N 33°30' W 122°24'1019.7 360 / 271013.7 5.4 16.014.417.0
2017-Jul-19 05:30N 33°35' W 122°34'816.1
2017-Jul-19 05:00N 33°35' W 122°43'816.3
2017-Jul-19 04:30N 33°37' W 122°53'816.4
2017-Jul-19 04:00N 33°38' W 123°02'816.3
2017-Jul-19 03:30N 33°40' W 123°12'816.1
2017-Jul-19 03:00N 33°42' W 123°22'816.4
2017-Jul-19 02:30N 33°43' W 123°31'816.1
2017-Jul-19 02:00N 33°45' W 123°41'816.0
2017-Jul-19 01:30N 33°47' W 123°50'816.2
2017-Jul-19 01:00N 33°48' W 123°60'815.9
2017-Jul-19 00:30N 33°50' W 124°09'816.1
2017-Jul-19 00:00N 33°51' W 124°18'815.9
2017-Jul-18 23:30N 33°53' W 124°28'815.8
2017-Jul-18 23:00N 33°55' W 124°37'815.9
2017-Jul-18 22:30N 33°56' W 124°47'815.8
2017-Jul-18 21:59N 33°60' W 124°56'715.8
2017-Jul-18 21:30N 34°03' W 125°04'816.0
2017-Jul-18 21:00N 34°07' W 125°12'815.8
2017-Jul-18 20:30N 34°11' W 125°20'815.8
2017-Jul-18 20:00N 34°16' W 125°28'815.7
2017-Jul-18 19:30N 34°19' W 125°37'815.9
2017-Jul-18 19:00N 34°23' W 125°45'816.0
2017-Jul-18 18:30N 34°27' W 125°53'816.2
2017-Jul-18 18:00N 34°32' W 126°02'816.2
2017-Jul-18 17:30N 34°36' W 126°10'816.2
2017-Jul-18 17:00N 34°40' W 126°19'816.2
2017-Jul-18 16:30N 34°44' W 126°27'816.2
2017-Jul-18 16:00N 34°48' W 126°36'918.2
2017-Jul-18 15:30N 34°52' W 126°45'918.0
2017-Jul-18 15:00N 34°57' W 126°55'1816.2
2017-Jul-18 13:54N 35°06' W 127°14'616.3
2017-Jul-18 13:30N 35°09' W 127°20'816.4
2017-Jul-18 12:59N 35°14' W 127°29'816.3
2017-Jul-18 12:29N 35°18' W 127°38'816.2
2017-Jul-18 12:00N 35°22' W 127°46'5311.1
2017-Jul-18 12:00N 35°18' W 127°42'1326.8 360 / 471018.810.8 15.013.314.0
2017-Jul-18 11:30N 35°26' W 127°55'816.1
2017-Jul-18 11:00N 35°30' W 128°03'816.1
2017-Jul-18 10:30N 35°34' W 128°12'916.2
2017-Jul-18 09:58N 35°38' W 128°21'816.5
2017-Jul-18 09:30N 35°42' W 128°29'816.5
2017-Jul-18 09:00N 35°46' W 128°38'4715.4
2017-Jul-18 06:00N 36°06' W 129°30'4790798.3 030 / 201022.0 5.4 15.013.316.0
2017-Jul-18 00:00N 36°54' E 131°12'4571761.8 010 / 161022.010.8 18.014.816.0
2017-Jul-17 18:00N 37°36' W 133°06'9916.5 020 / 201024.3 5.4 17.013.717.0
2017-Jul-17 12:00N 38°18' W 135°00'9415.7 030 / 151025.310.8 16.014.415.0
2017-Jul-17 06:00N 39°00' W 136°48'3913652.2 030 / 101027.3 5.4 16.014.417.0
2017-Jul-17 00:00N 39°48' E 138°48'3682613.7 020 / 81027.6 0.3 16.0
2017-Jul-16 18:00N 40°42' W 140°48'9716.2 210 / 101028.5 5.4 17.015.416.0
2017-Jul-16 12:00N 41°00' W 142°54'10116.9 180 / 141028.8 5.4 15.013.314.0
2017-Jul-16 06:00N 41°36' W 145°00'9916.4 230 / 121027.2 5.4 15.013.314.0
2017-Jul-16 00:00N 42°06' W 147°06'10016.6 200 / 181026.5 5.4 17.015.413.0
2017-Jul-15 18:00N 42°42' W 149°12'10417.3 210 / 171023.9 0.1 15.013.313.0
2017-Jul-15 12:00N 43°06' W 151°30'9916.5 250 / 141025.0 0.3 15.013.313.0
2017-Jul-15 06:00N 43°30' W 153°42'20317.0 260 / 81024.8 0.0 16.016.013.0
2017-Jul-14 18:00N 44°12' W 158°18'10016.7 250 / 141025.6 0.0 15.015.012.0
2017-Jul-14 12:00N 44°30' W 160°36'10317.2 250 / 81028.0 0.3 14.012.312.0
2017-Jul-14 06:00N 44°42' W 163°00'36830.7 260 / 81027.0 0.0 16.014.412.0
2017-Jul-13 18:00N 49°54' W 167°48'29849.7 170 / 171026.5 0.3 13.011.211.0
2017-Jul-13 12:00N 45°12' W 170°12'10217.0 180 / 241024.6 0.3 13.011.210.0
2017-Jul-13 06:00N 45°06' W 172°36'10216.9 180 / 141021.2 0.0 9.0 7.0 8.0
2017-Jul-13 00:00N 45°06' W 175°00'9816.3 210 / 121018.8 5.4 13.011.3
2017-Jul-12 18:00N 45°00' W 177°18'10217.0 260 / 61015.510.8 11.0 9.2 8.0
2017-Jul-12 12:00N 45°00' W 179°42'10818.0 180 / 201011.7 5.4 11.0 9.210.0
2017-Jul-12 06:00N 44°42' E 177°48'   200 / 141008.1 5.4 12.010.2 8.0
Track history (hours):
 
Tides and Currents Weather Stations Pressure Air Temp Water Temp Dewpoint Dewpoint Depression Visibility Wind Speed Wind Dir Waves Ship Positions

New Century 1

Last reported at 2017-Jul-22 02:33 UTC. Time now 2017-Jul-22 10:37 UTC.
Position N 38°03' W 122°18'.

Length 200 m; beam 32.3 m.

Type: Cargo ship. MMSI: 355234000.

Date/timePositionNaut miles runAvg speedWind from/ knotsBaromVisibWave heightAir tempDewpointWater temp
2017-Jul-22 02:33N 38°03' W 122°18'114.4
2017-Jul-22 02:31N 38°03' W 122°19'714.4
2017-Jul-22 02:01N 37°59' W 122°26'714.1
2017-Jul-22 01:31N 37°52' W 122°25'714.0
2017-Jul-22 01:01N 37°48' W 122°32'713.1
2017-Jul-22 00:30N 37°45' W 122°40'612.0
2017-Jul-22 00:00N 37°39' W 122°40'917.1
2017-Jul-21 23:30N 37°30' W 122°40'714.1
2017-Jul-21 23:00N 37°23' W 122°39'5 9.2
2017-Jul-21 22:30N 37°19' W 122°39'917.6
2017-Jul-21 22:00N 37°10' W 122°39'917.5
2017-Jul-21 21:30N 37°01' W 122°37'918.1
2017-Jul-21 21:00N 36°52' W 122°36'917.9
2017-Jul-21 20:30N 36°43' W 122°36'917.4
2017-Jul-21 20:00N 36°35' W 122°34'917.5
2017-Jul-21 19:30N 36°26' W 122°32'917.3
2017-Jul-21 19:01N 36°18' W 122°29'917.5
2017-Jul-21 18:30N 36°09' W 122°27'917.3
2017-Jul-21 18:00N 36°01' W 122°24'917.3
2017-Jul-21 17:30N 35°53' W 122°21'816.8
2017-Jul-21 17:00N 35°44' W 122°18'816.9
2017-Jul-21 16:30N 35°37' W 122°13'816.9
2017-Jul-21 16:00N 35°31' W 122°06'816.0
2017-Jul-21 15:30N 35°24' W 122°00'816.1
2017-Jul-21 15:00N 35°18' W 121°54'816.4
2017-Jul-21 14:30N 35°12' W 121°47'816.4
2017-Jul-21 14:00N 35°05' W 121°41'816.8
2017-Jul-21 13:30N 34°59' W 121°35'917.8
2017-Jul-21 13:00N 34°52' W 121°28'917.6
2017-Jul-21 12:30N 34°45' W 121°21'917.5
2017-Jul-21 12:00N 34°39' W 121°13'917.6
2017-Jul-21 11:30N 34°34' W 121°05'917.4
2017-Jul-21 11:00N 34°29' W 120°56'917.3
2017-Jul-21 10:30N 34°25' W 120°47'917.2
2017-Jul-21 10:00N 34°23' W 120°36'917.8
2017-Jul-21 09:30N 34°21' W 120°26'1018.9
2017-Jul-21 09:00N 34°18' W 120°15'919.2
2017-Jul-21 08:30N 34°16' W 120°04'1019.3
2017-Jul-21 08:00N 34°13' W 119°53'918.2
2017-Jul-21 07:30N 34°11' W 119°42'918.2
2017-Jul-21 07:00N 34°08' W 119°32'918.2
2017-Jul-21 06:30N 34°06' W 119°21'918.2
2017-Jul-21 06:00N 34°02' W 119°11'815.2
2017-Jul-21 05:30N 33°59' W 119°03'510.7
2017-Jul-21 05:01N 33°56' W 118°57'611.0
2017-Jul-21 04:31N 33°53' W 118°52'611.1
2017-Jul-21 04:00N 33°50' W 118°46'510.9
2017-Jul-21 03:31N 33°48' W 118°40'510.9
2017-Jul-21 03:00N 33°45' W 118°34'611.1
2017-Jul-21 02:30N 33°42' W 118°29'511.0
2017-Jul-21 02:00N 33°39' W 118°23'510.3
2017-Jul-21 01:30N 33°39' W 118°17'5 9.9
2017-Jul-21 01:00N 33°41' W 118°11'4 8.1
2017-Jul-21 00:31N 33°44' W 118°13'2 4.0
2017-Jul-21 00:00N 33°46' W 118°13'0 0.0
2017-Jul-20 23:29N 33°46' W 118°13'0 0.0
2017-Jul-20 22:59N 33°46' W 118°13'0 0.0
2017-Jul-20 22:29N 33°46' W 118°13'0 0.0
2017-Jul-20 21:59N 33°46' W 118°13'0 0.0
2017-Jul-20 21:29N 33°46' W 118°13'0 0.0
2017-Jul-20 20:59N 33°46' W 118°13'0 0.0
2017-Jul-20 20:29N 33°46' W 118°13'0 0.0
2017-Jul-20 19:59N 33°46' W 118°13'0 0.0
2017-Jul-20 19:29N 33°46' W 118°13'0 0.0
2017-Jul-20 18:59N 33°46' W 118°13'0 0.0
2017-Jul-20 18:27N 33°46' W 118°13'0 0.0
2017-Jul-20 18:01N 33°46' W 118°13'0 0.0
2017-Jul-20 17:30N 33°46' W 118°13'0 0.0
2017-Jul-20 17:00N 33°46' W 118°13'0 0.0
2017-Jul-20 16:30N 33°46' W 118°13'0 0.0
2017-Jul-20 16:01N 33°46' W 118°13'0 0.0
2017-Jul-20 15:31N 33°46' W 118°13'0 0.0
2017-Jul-20 15:01N 33°46' W 118°13'0 0.0
2017-Jul-20 14:00N 33°46' W 118°13'0 0.0
2017-Jul-20 13:30N 33°46' W 118°13'0 0.0
2017-Jul-20 13:01N 33°46' W 118°13'0 0.0
2017-Jul-20 12:30N 33°46' W 118°13'0 0.0
2017-Jul-20 12:00N 33°46' W 118°13'0 0.0
2017-Jul-20 11:31N 33°46' W 118°13'0 0.0
2017-Jul-20 11:01N 33°46' W 118°13'0 0.0
2017-Jul-20 10:31N 33°46' W 118°13'0 0.0
2017-Jul-20 10:00N 33°46' W 118°13'0 0.0
2017-Jul-20 09:31N 33°46' W 118°13'0 0.0
2017-Jul-20 09:00N 33°46' W 118°13'0 0.0
2017-Jul-20 08:30N 33°46' W 118°13'0 0.0
2017-Jul-20 08:01N 33°46' W 118°13'0 0.0
2017-Jul-20 07:30N 33°46' W 118°13'0 0.0
2017-Jul-20 07:00N 33°46' W 118°13'0 0.0
2017-Jul-20 06:30N 33°46' W 118°13'0 0.0
2017-Jul-20 06:00N 33°46' W 118°13'0 0.0
2017-Jul-20 05:30N 33°46' W 118°13'0 0.0
2017-Jul-20 05:00N 33°46' W 118°13'0 0.0
2017-Jul-20 04:30N 33°46' W 118°13'0 0.0
2017-Jul-20 04:01N 33°46' W 118°13'0 0.0
2017-Jul-20 03:30N 33°46' W 118°13'0 0.0
2017-Jul-20 03:00N 33°46' W 118°13'0 0.0
2017-Jul-20 02:30N 33°46' W 118°13'0 0.0
2017-Jul-20 02:00N 33°46' W 118°13'0 0.0
2017-Jul-20 01:30N 33°46' W 118°13'0 0.0
2017-Jul-20 01:00N 33°46' W 118°13'0 0.3
2017-Jul-20 00:30N 33°46' W 118°13'1 2.2
2017-Jul-20 00:00N 33°45' W 118°13'4 7.4
2017-Jul-19 23:31N 33°42' W 118°11'4 7.6
2017-Jul-19 23:00N 33°38' W 118°12'4 8.7
2017-Jul-19 22:30N 33°36' W 118°16'5 9.0
2017-Jul-19 22:00N 33°36' W 118°21'5 9.4
2017-Jul-19 21:30N 33°37' W 118°27'5 9.4
2017-Jul-19 21:00N 33°37' W 118°33'5 9.6
2017-Jul-19 20:30N 33°37' W 118°38'5 9.0
2017-Jul-19 20:00N 33°38' W 118°44'5 9.2
2017-Jul-19 19:30N 33°39' W 118°49'5 9.4
2017-Jul-19 19:00N 33°39' W 118°55'4 8.8
2017-Jul-19 18:30N 33°39' W 119°00'4 8.7
2017-Jul-19 18:01N 33°40' W 119°05'5 9.8
2017-Jul-19 17:30N 33°40' W 119°11'5 9.6
2017-Jul-19 17:01N 33°40' W 119°17'510.1
2017-Jul-19 16:31N 33°40' W 119°23'5 9.9
2017-Jul-19 16:01N 33°40' W 119°29'5 9.4
2017-Jul-19 15:30N 33°39' W 119°35'5 9.4
2017-Jul-19 15:00N 33°39' W 119°40'3 7.0
2017-Jul-19 14:30N 33°39' W 119°44'714.8
2017-Jul-19 14:00N 33°39' W 119°53'714.9
2017-Jul-19 13:30N 33°39' W 120°02'815.0
2017-Jul-19 13:00N 33°38' W 120°11'815.2
2017-Jul-19 12:30N 33°38' W 120°20'815.1
2017-Jul-19 12:00N 33°38' W 120°29'815.4
2017-Jul-19 11:30N 33°38' W 120°39'815.6
2017-Jul-19 11:00N 33°38' W 120°48'815.5
2017-Jul-19 10:30N 33°37' W 120°57'815.7
2017-Jul-19 10:00N 33°37' W 121°07'815.9
2017-Jul-19 09:30N 33°37' W 121°16'815.9
2017-Jul-19 09:00N 33°37' W 121°26'815.8
2017-Jul-19 08:30N 33°36' W 121°35'816.0
2017-Jul-19 08:00N 33°36' W 121°45'816.1
2017-Jul-19 07:30N 33°36' W 121°55'816.2
2017-Jul-19 07:00N 33°36' W 122°04'816.4
2017-Jul-19 06:30N 33°36' W 122°14'816.3
2017-Jul-19 06:00N 33°35' W 122°24'5336.3
2017-Jul-19 06:00N 33°30' W 122°24'1019.7 360 / 271013.7 5.4 16.014.417.0
2017-Jul-19 05:30N 33°35' W 122°34'816.1
2017-Jul-19 05:00N 33°35' W 122°43'816.3
2017-Jul-19 04:30N 33°37' W 122°53'816.4
2017-Jul-19 04:00N 33°38' W 123°02'816.3
2017-Jul-19 03:30N 33°40' W 123°12'816.1
2017-Jul-19 03:00N 33°42' W 123°22'816.4
2017-Jul-19 02:30N 33°43' W 123°31'816.1
2017-Jul-19 02:00N 33°45' W 123°41'816.0
2017-Jul-19 01:30N 33°47' W 123°50'816.2
2017-Jul-19 01:00N 33°48' W 123°60'815.9
2017-Jul-19 00:30N 33°50' W 124°09'816.1
2017-Jul-19 00:00N 33°51' W 124°18'815.9
2017-Jul-18 23:30N 33°53' W 124°28'815.8
2017-Jul-18 23:00N 33°55' W 124°37'815.9
2017-Jul-18 22:30N 33°56' W 124°47'815.8
2017-Jul-18 21:59N 33°60' W 124°56'715.8
2017-Jul-18 21:30N 34°03' W 125°04'816.0
2017-Jul-18 21:00N 34°07' W 125°12'815.8
2017-Jul-18 20:30N 34°11' W 125°20'815.8
2017-Jul-18 20:00N 34°16' W 125°28'815.7
2017-Jul-18 19:30N 34°19' W 125°37'815.9
2017-Jul-18 19:00N 34°23' W 125°45'816.0
2017-Jul-18 18:30N 34°27' W 125°53'816.2
2017-Jul-18 18:00N 34°32' W 126°02'816.2
2017-Jul-18 17:30N 34°36' W 126°10'816.2
2017-Jul-18 17:00N 34°40' W 126°19'816.2
2017-Jul-18 16:30N 34°44' W 126°27'816.2
2017-Jul-18 16:00N 34°48' W 126°36'918.2
2017-Jul-18 15:30N 34°52' W 126°45'918.0
2017-Jul-18 15:00N 34°57' W 126°55'1816.2
2017-Jul-18 13:54N 35°06' W 127°14'616.3
2017-Jul-18 13:30N 35°09' W 127°20'816.4
2017-Jul-18 12:59N 35°14' W 127°29'816.3
2017-Jul-18 12:29N 35°18' W 127°38'816.2
2017-Jul-18 12:00N 35°22' W 127°46'5311.1
2017-Jul-18 12:00N 35°18' W 127°42'1326.8 360 / 471018.810.8 15.013.314.0
2017-Jul-18 11:30N 35°26' W 127°55'816.1
2017-Jul-18 11:00N 35°30' W 128°03'816.1
2017-Jul-18 10:30N 35°34' W 128°12'916.2
2017-Jul-18 09:58N 35°38' W 128°21'816.5
2017-Jul-18 09:30N 35°42' W 128°29'816.5
2017-Jul-18 09:00N 35°46' W 128°38'4715.4
2017-Jul-18 06:00N 36°06' W 129°30'4790798.3 030 / 201022.0 5.4 15.013.316.0
2017-Jul-18 00:00N 36°54' E 131°12'4571761.8 010 / 161022.010.8 18.014.816.0
2017-Jul-17 18:00N 37°36' W 133°06'9916.5 020 / 201024.3 5.4 17.013.717.0
2017-Jul-17 12:00N 38°18' W 135°00'9415.7 030 / 151025.310.8 16.014.415.0
2017-Jul-17 06:00N 39°00' W 136°48'3913652.2 030 / 101027.3 5.4 16.014.417.0
2017-Jul-17 00:00N 39°48' E 138°48'3682613.7 020 / 81027.6 0.3 16.0
2017-Jul-16 18:00N 40°42' W 140°48'9716.2 210 / 101028.5 5.4 17.015.416.0
2017-Jul-16 12:00N 41°00' W 142°54'10116.9 180 / 141028.8 5.4 15.013.314.0
2017-Jul-16 06:00N 41°36' W 145°00'9916.4 230 / 121027.2 5.4 15.013.314.0
2017-Jul-16 00:00N 42°06' W 147°06'10016.6 200 / 181026.5 5.4 17.015.413.0
2017-Jul-15 18:00N 42°42' W 149°12'10417.3 210 / 171023.9 0.1 15.013.313.0
2017-Jul-15 12:00N 43°06' W 151°30'9916.5 250 / 141025.0 0.3 15.013.313.0
2017-Jul-15 06:00N 43°30' W 153°42'20317.0 260 / 81024.8 0.0 16.016.013.0
2017-Jul-14 18:00N 44°12' W 158°18'10016.7 250 / 141025.6 0.0 15.015.012.0
2017-Jul-14 12:00N 44°30' W 160°36'10317.2 250 / 81028.0 0.3 14.012.312.0
2017-Jul-14 06:00N 44°42' W 163°00'36830.7 260 / 81027.0 0.0 16.014.412.0
2017-Jul-13 18:00N 49°54' W 167°48'29849.7 170 / 171026.5 0.3 13.011.211.0
2017-Jul-13 12:00N 45°12' W 170°12'10217.0 180 / 241024.6 0.3 13.011.210.0
2017-Jul-13 06:00N 45°06' W 172°36'10216.9 180 / 141021.2 0.0 9.0 7.0 8.0
2017-Jul-13 00:00N 45°06' W 175°00'9816.3 210 / 121018.8 5.4 13.011.3
2017-Jul-12 18:00N 45°00' W 177°18'10217.0 260 / 61015.510.8 11.0 9.2 8.0
2017-Jul-12 12:00N 45°00' W 179°42'10818.0 180 / 201011.7 5.4 11.0 9.210.0
2017-Jul-12 06:00N 44°42' E 177°48'   200 / 141008.1 5.4 12.010.2 8.0

Dump ship's entire track history